Bagno a Ripoli, Italy

12:29 AM CEST on September 17, 2014 (GMT +0200)
Firenze | Change Station
CLOSE
Current Station
Personal Weather Station
Location: Bagno A Ripoli, TOSCANA
Elevation: 823 ft
Nearby Weather Stations

Elev 823 ft 43.71 °N, 11.34 °E | Updated 11 minutes ago

Clear
Clear
64.5 °F
Feels Like 64.5 °F
N
0.0
Wind Variable Wind from ENE
Gusts 0.0 mph

Today
High -- | Low -- °F
--% Chance of Precip.
Yesterday
High -- | Low -- °F
Precip. -- in
6:55 AM 7:21 PM
Last Quarter, 42% visible
Pressure 29.98 in
Visibility -9999.0 miles
Clouds
Dew Point 58 °F
Humidity 79%
Rainfall 0.00 in
Snow Depth Not available.
UV Not available.
Pollen Not available.
Air Quality Not available.
Flu Activity Not available.
METAR LIRQ 162220Z 21003KT 180V240 CAVOK 17/15 Q1015

More Conditions Fewer Conditions

Pressure 29.98 in
Visibility -9999.0 miles
Clouds
Dew Point 58 °F
Humidity 79%
Rainfall 0.00 in
Snow Depth Not available.
UV Not available.
Pollen Not available.
Air Quality Not available.
Flu Activity Not available.
METAR LIRQ 162220Z 21003KT 180V240 CAVOK 17/15 Q1015

More Conditions Fewer Conditions

10-Day Weather Forecast

Almanac

Astronomy

Sep. 17, 2014 Rise Set
Actual Time 6:55 AM CEST 7:21 PM CEST
Civil Twilight 6:27 AM CEST 7:50 PM CEST
Nautical Twilight 5:53 AM CEST 8:24 PM CEST
Astronomical Twilight 5:18 AM CEST 8:59 PM CEST
Moon 12:33 AM CEST (9/17) 3:26 PM CEST (9/17)
Length of Visible Light 13h 23m
Length of Day
12h 25m
Tomorrow will be 2m 58s shorter.
Last Quarter, 42% of the Moon is Illuminated
Sep 16
Last Quarter
Sep 24
New
Oct 1
First Quarter
Oct 8
Full
Oct 15
Last Quarter

Yesterday's Extremes

Country Highs Country Lows

Community

WunderPhotos

Upload Photos

1,753,896 photos uploaded!

Nearby

Snow Depth

Not available.

Earthquake Activity

City Distance Mag. Time & Date
No recent earthquake activity has been reported nearby.
Minimum magnitude displayed is 2.5.

Coastal Water Temperatures

Place Temperature
No Stations Reporting

Nearby Weather Stations